Time;durP1;ratioP1;P1;durP2;ratioP2;P2;SDS_P1;SDS_P2;PMS_P1;PMS_P2;Temp;Humidity;BMP_temperature;BMP_pressure;BME280_temperature;BME280_humidity;BME280_pressure;Samples;Min_cycle;Max_cycle;Signal;HPM_P1;HPM_P2
2022/06/27 00:01:59;;;;;;;3.33;2.17;;;;;;;;;;5020848;28;20391;-71
2022/06/27 00:04:25;;;;;;;2.78;2.35;;;;;;;;;;5026648;28;20029;-70
2022/06/27 00:06:51;;;;;;;3.05;2.30;;;;;;;;;;5006374;28;20029;-70
2022/06/27 00:09:17;;;;;;;4.70;2.22;;;;;;;;;;5029709;28;20457;-71
2022/06/27 00:11:43;;;;;;;2.20;2.00;;;;;;;;;;5022106;28;20383;-70
2022/06/27 00:14:09;;;;;;;4.13;2.55;;;;;;;;;;5016997;28;20057;-70
2022/06/27 00:16:36;;;;;;;6.07;2.03;;;;;;;;;;5024874;28;20492;-71
2022/06/27 00:19:02;;;;;;;1.92;1.80;;;;;;;;;;5005970;28;20050;-70
2022/06/27 00:21:28;;;;;;;3.38;2.10;;;;;;;;;;5024857;28;20158;-71
2022/06/27 00:23:54;;;;;;;3.10;2.00;;;;;;;;;;5021330;28;20069;-70
2022/06/27 00:26:20;;;;;;;2.05;1.80;;;;;;;;;;5009674;28;20493;-70
2022/06/27 00:28:46;;;;;;;2.45;1.85;;;;;;;;;;5030992;28;20075;-70
2022/06/27 00:31:12;;;;;;;4.80;2.00;;;;;;;;;;5026596;28;20029;-70
2022/06/27 00:33:39;;;;;;;4.25;1.90;;;;;;;;;;5021665;28;20163;-70
2022/06/27 00:36:05;;;;;;;4.22;2.20;;;;;;;;;;5022205;28;20025;-70
2022/06/27 00:38:31;;;;;;;3.75;1.90;;;;;;;;;;5023813;28;20052;-70
2022/06/27 00:40:57;;;;;;;4.05;2.20;;;;;;;;;;5029388;28;20111;-71
2022/06/27 00:43:23;;;;;;;3.85;2.00;;;;;;;;;;5028093;28;20022;-70
2022/06/27 00:45:49;;;;;;;2.92;1.90;;;;;;;;;;5022804;28;20038;-71
2022/06/27 00:48:15;;;;;;;2.38;1.90;;;;;;;;;;5026858;28;20467;-71
2022/06/27 00:50:41;;;;;;;2.10;1.88;;;;;;;;;;5030191;28;20464;-71
2022/06/27 00:53:10;;;;;;;3.30;1.70;;;;;;;;;;5028115;28;20029;-70
2022/06/27 00:55:36;;;;;;;2.33;1.83;;;;;;;;;;5020639;28;20463;-71
2022/06/27 00:58:02;;;;;;;2.67;1.80;;;;;;;;;;5028497;28;20387;-71
2022/06/27 01:00:29;;;;;;;2.72;1.90;;;;;;;;;;5024614;28;20037;-70
2022/06/27 01:02:55;;;;;;;4.90;1.92;;;;;;;;;;5026150;28;20029;-71
2022/06/27 01:05:21;;;;;;;2.83;1.90;;;;;;;;;;5014588;28;20028;-70
2022/06/27 01:07:47;;;;;;;3.03;2.10;;;;;;;;;;5027917;28;20109;-69
2022/06/27 01:10:13;;;;;;;2.33;2.00;;;;;;;;;;5027091;28;20029;-70
2022/06/27 01:12:43;;;;;;;2.63;1.80;;;;;;;;;;5027529;28;20528;-70
2022/06/27 01:15:10;;;;;;;3.10;1.63;;;;;;;;;;5014908;28;20061;-70
2022/06/27 01:17:36;;;;;;;2.15;1.90;;;;;;;;;;5021432;28;20033;-70
2022/06/27 01:20:03;;;;;;;2.83;1.90;;;;;;;;;;5025895;28;20494;-70
2022/06/27 01:22:29;;;;;;;3.38;1.92;;;;;;;;;;5027606;28;20033;-69
2022/06/27 01:24:55;;;;;;;1.92;1.73;;;;;;;;;;5022170;28;20053;-70
2022/06/27 01:27:21;;;;;;;3.60;2.08;;;;;;;;;;5022843;28;20384;-70
2022/06/27 01:29:47;;;;;;;2.78;1.88;;;;;;;;;;5023609;28;20033;-71
2022/06/27 01:32:13;;;;;;;3.17;1.90;;;;;;;;;;5024243;28;20021;-71
2022/06/27 01:34:39;;;;;;;2.80;2.00;;;;;;;;;;5023409;28;20048;-70
2022/06/27 01:37:05;;;;;;;3.75;1.67;;;;;;;;;;5025331;28;20044;-70
2022/06/27 01:39:32;;;;;;;4.88;1.90;;;;;;;;;;5024383;28;20034;-70
2022/06/27 01:41:59;;;;;;;3.55;1.92;;;;;;;;;;5020267;28;20037;-70
2022/06/27 01:44:26;;;;;;;2.40;1.83;;;;;;;;;;5026521;28;20360;-69
2022/06/27 01:46:53;;;;;;;2.13;1.67;;;;;;;;;;5025865;28;20041;-70
2022/06/27 01:49:20;;;;;;;2.40;2.00;;;;;;;;;;5021055;28;20025;-71
2022/06/27 01:51:47;;;;;;;2.90;1.75;;;;;;;;;;5026002;28;20566;-71
2022/06/27 01:54:14;;;;;;;2.38;1.80;;;;;;;;;;5018896;28;20029;-71
2022/06/27 01:56:41;;;;;;;2.80;2.20;;;;;;;;;;5023901;28;20021;-71
2022/06/27 01:59:08;;;;;;;2.22;1.92;;;;;;;;;;5018917;28;20042;-71
2022/06/27 02:01:34;;;;;;;3.80;1.80;;;;;;;;;;5026537;28;20029;-71
2022/06/27 02:04:00;;;;;;;2.20;2.00;;;;;;;;;;5011697;28;20049;-70
2022/06/27 02:06:27;;;;;;;2.85;2.00;;;;;;;;;;5028950;28;20040;-71
2022/06/27 02:08:54;;;;;;;2.92;1.95;;;;;;;;;;5016508;28;20128;-70
2022/06/27 02:11:20;;;;;;;2.33;1.90;;;;;;;;;;5018438;28;20025;-71
2022/06/27 02:13:47;;;;;;;3.17;1.88;;;;;;;;;;5026775;28;20025;-71
2022/06/27 02:16:14;;;;;;;5.47;2.17;;;;;;;;;;5025220;28;20070;-70
2022/06/27 02:18:40;;;;;;;2.22;1.90;;;;;;;;;;5023841;28;20055;-70
2022/06/27 02:21:15;;;;;;;2.88;2.00;;;;;;;;;;5017915;28;20488;-70
2022/06/27 02:23:41;;;;;;;2.22;1.80;;;;;;;;;;5009414;28;20029;-70
2022/06/27 02:26:08;;;;;;;3.60;2.17;;;;;;;;;;5019879;28;20040;-70
2022/06/27 02:28:34;;;;;;;3.15;1.98;;;;;;;;;;5022593;28;20054;-71
2022/06/27 02:31:01;;;;;;;4.28;2.00;;;;;;;;;;5015495;28;20129;-70
2022/06/27 02:33:34;;;;;;;3.10;2.63;;;;;;;;;;5024861;28;20034;-70
2022/06/27 02:36:01;;;;;;;2.67;2.17;;;;;;;;;;5027316;28;20053;-70
2022/06/27 02:38:28;;;;;;;2.28;1.85;;;;;;;;;;5017467;28;20045;-70
2022/06/27 02:40:55;;;;;;;5.57;2.88;;;;;;;;;;5011421;28;20040;-70
2022/06/27 02:43:21;;;;;;;3.45;2.00;;;;;;;;;;5014908;28;20030;-70
2022/06/27 02:45:48;;;;;;;2.45;2.20;;;;;;;;;;5022783;28;20368;-70
2022/06/27 02:48:17;;;;;;;2.70;2.10;;;;;;;;;;5027727;28;20108;-70
2022/06/27 02:50:45;;;;;;;5.28;2.70;;;;;;;;;;5021779;28;20368;-70
2022/06/27 02:53:11;;;;;;;5.65;2.50;;;;;;;;;;5024179;28;20112;-70
2022/06/27 02:55:39;;;;;;;6.57;2.53;;;;;;;;;;5022552;28;20069;-70
2022/06/27 02:58:24;;;;;;;6.35;2.35;;;;;;;;;;5027414;28;20041;-70
2022/06/27 03:00:51;;;;;;;6.18;2.40;;;;;;;;;;5021541;28;20117;-71
2022/06/27 03:03:17;;;;;;;3.65;2.10;;;;;;;;;;5014310;28;20064;-71
2022/06/27 03:05:55;;;;;;;3.08;2.40;;;;;;;;;;5029840;28;20018;-71
2022/06/27 03:08:21;;;;;;;4.45;2.58;;;;;;;;;;5031783;28;20048;-72
2022/06/27 03:10:47;;;;;;;3.88;2.50;;;;;;;;;;5031143;28;20033;-71
2022/06/27 03:13:14;;;;;;;5.43;2.40;;;;;;;;;;5024510;28;20029;-71
2022/06/27 03:15:40;;;;;;;3.47;2.00;;;;;;;;;;5016350;28;20042;-70
2022/06/27 03:18:06;;;;;;;2.65;2.20;;;;;;;;;;5031718;28;20021;-71
2022/06/27 03:20:32;;;;;;;4.65;2.30;;;;;;;;;;5031429;28;20083;-69
2022/06/27 03:22:58;;;;;;;4.25;2.30;;;;;;;;;;5024654;28;20075;-71
2022/06/27 03:25:24;;;;;;;5.53;2.25;;;;;;;;;;5026291;28;20096;-70
2022/06/27 03:27:50;;;;;;;2.33;2.13;;;;;;;;;;5026385;28;20498;-72
2022/06/27 03:30:17;;;;;;;2.70;2.20;;;;;;;;;;5033081;28;20072;-74
2022/06/27 03:32:43;;;;;;;7.03;2.58;;;;;;;;;;5031648;28;20018;-75
2022/06/27 03:35:09;;;;;;;7.05;2.42;;;;;;;;;;5018783;28;20026;-74
2022/06/27 03:37:35;;;;;;;5.93;2.50;;;;;;;;;;5028782;28;20060;-74
2022/06/27 03:40:01;;;;;;;6.28;2.70;;;;;;;;;;5022464;28;20081;-75
2022/06/27 03:42:27;;;;;;;5.35;2.88;;;;;;;;;;5020500;28;20033;-74
2022/06/27 03:44:53;;;;;;;7.85;2.40;;;;;;;;;;5014626;28;20032;-74
2022/06/27 03:47:20;;;;;;;4.53;2.88;;;;;;;;;;5019753;28;20041;-74
2022/06/27 03:50:01;;;;;;;10.10;3.03;;;;;;;;;;5019938;28;20026;-73
2022/06/27 03:52:29;;;;;;;7.07;2.83;;;;;;;;;;5018595;28;20101;-75
2022/06/27 03:54:55;;;;;;;9.27;3.00;;;;;;;;;;5018086;28;20117;-72
2022/06/27 03:57:21;;;;;;;10.52;3.17;;;;;;;;;;5016794;28;20068;-74
2022/06/27 03:59:47;;;;;;;11.95;3.50;;;;;;;;;;5003963;28;20045;-72
2022/06/27 04:02:16;;;;;;;19.83;4.78;;;;;;;;;;5016210;28;20108;-72
2022/06/27 04:04:42;;;;;;;11.75;3.30;;;;;;;;;;5014617;28;20022;-73
2022/06/27 04:07:08;;;;;;;9.73;3.50;;;;;;;;;;5016789;28;20033;-74
2022/06/27 04:09:34;;;;;;;5.93;2.80;;;;;;;;;;5018370;28;20075;-71
2022/06/27 04:12:00;;;;;;;8.63;2.60;;;;;;;;;;5015549;28;20026;-71
2022/06/27 04:14:26;;;;;;;7.57;2.90;;;;;;;;;;5020748;28;20025;-74
2022/06/27 04:16:52;;;;;;;4.80;2.42;;;;;;;;;;5017087;28;20501;-74
2022/06/27 04:19:18;;;;;;;7.85;2.80;;;;;;;;;;5017203;28;20030;-72
2022/06/27 04:21:45;;;;;;;8.50;2.90;;;;;;;;;;5015467;28;20037;-74
2022/06/27 04:24:11;;;;;;;8.77;3.22;;;;;;;;;;5019718;28;20018;-74
2022/06/27 04:26:37;;;;;;;10.98;3.00;;;;;;;;;;5016670;28;20033;-73
2022/06/27 04:29:04;;;;;;;8.18;2.67;;;;;;;;;;5017747;28;20087;-74
2022/06/27 04:31:30;;;;;;;8.38;2.70;;;;;;;;;;5017092;28;20021;-72
2022/06/27 04:33:56;;;;;;;9.30;3.00;;;;;;;;;;5018519;28;20387;-71
2022/06/27 04:36:23;;;;;;;6.93;3.00;;;;;;;;;;5020426;28;20228;-73
2022/06/27 04:38:49;;;;;;;5.03;2.63;;;;;;;;;;5014140;28;20112;-73
2022/06/27 04:41:16;;;;;;;3.40;2.35;;;;;;;;;;5016682;28;20036;-72
2022/06/27 04:43:42;;;;;;;4.18;2.25;;;;;;;;;;5021706;28;20386;-74
2022/06/27 04:46:08;;;;;;;3.90;1.95;;;;;;;;;;5016002;28;20026;-73
2022/06/27 04:48:35;;;;;;;4.90;2.35;;;;;;;;;;5017785;28;20384;-73
2022/06/27 04:51:01;;;;;;;7.68;2.20;;;;;;;;;;5017458;28;20392;-72
2022/06/27 04:53:28;;;;;;;3.80;1.90;;;;;;;;;;5015151;28;20475;-73
2022/06/27 04:55:54;;;;;;;5.57;2.50;;;;;;;;;;5017960;28;20053;-73
2022/06/27 04:58:20;;;;;;;4.25;2.22;;;;;;;;;;5028032;28;20022;-74
2022/06/27 05:00:46;;;;;;;7.03;2.83;;;;;;;;;;5016282;28;20033;-71
2022/06/27 05:03:12;;;;;;;9.65;2.92;;;;;;;;;;5021406;28;20071;-73
2022/06/27 05:05:39;;;;;;;8.20;3.60;;;;;;;;;;5023059;28;20437;-71
2022/06/27 05:08:05;;;;;;;11.90;3.65;;;;;;;;;;5000507;28;20480;-71
2022/06/27 05:10:31;;;;;;;10.55;3.60;;;;;;;;;;5023506;28;20029;-72
2022/06/27 05:12:59;;;;;;;10.27;3.60;;;;;;;;;;5021046;28;20026;-74
2022/06/27 05:15:25;;;;;;;12.85;3.65;;;;;;;;;;5022933;28;20526;-72
2022/06/27 05:17:52;;;;;;;7.93;3.55;;;;;;;;;;5019362;28;20435;-74
2022/06/27 05:20:18;;;;;;;6.90;3.40;;;;;;;;;;5022585;28;20050;-71
2022/06/27 05:22:44;;;;;;;6.88;3.55;;;;;;;;;;5022378;28;20056;-74
2022/06/27 05:25:10;;;;;;;8.55;2.60;;;;;;;;;;5023309;28;20033;-74
2022/06/27 05:27:37;;;;;;;7.13;2.90;;;;;;;;;;5015895;28;20029;-75
2022/06/27 05:30:04;;;;;;;9.85;2.92;;;;;;;;;;5022837;28;20060;-73
2022/06/27 05:32:30;;;;;;;6.22;2.60;;;;;;;;;;5023210;28;20021;-74
2022/06/27 05:34:57;;;;;;;5.15;2.65;;;;;;;;;;5026415;28;20408;-73
2022/06/27 05:37:23;;;;;;;8.32;2.80;;;;;;;;;;5022738;28;20478;-74
2022/06/27 05:39:49;;;;;;;11.45;4.05;;;;;;;;;;5023129;28;20045;-75
2022/06/27 05:42:16;;;;;;;4.50;2.40;;;;;;;;;;5020822;28;20037;-75
2022/06/27 05:44:42;;;;;;;11.02;3.10;;;;;;;;;;5025915;28;20029;-73
2022/06/27 05:47:09;;;;;;;6.10;2.90;;;;;;;;;;5014548;28;20030;-75
2022/06/27 05:49:37;;;;;;;5.72;3.15;;;;;;;;;;5029367;28;20064;-75
2022/06/27 05:52:03;;;;;;;6.55;2.60;;;;;;;;;;5022952;28;20110;-75
2022/06/27 05:54:29;;;;;;;9.30;2.92;;;;;;;;;;5021825;28;20030;-73
2022/06/27 05:56:56;;;;;;;11.73;3.47;;;;;;;;;;5012426;28;20080;-73
2022/06/27 05:59:23;;;;;;;4.38;2.50;;;;;;;;;;5005297;28;20096;-73
2022/06/27 06:01:51;;;;;;;6.45;2.97;;;;;;;;;;5013565;28;20029;-75
2022/06/27 06:04:17;;;;;;;6.07;2.63;;;;;;;;;;5011919;28;20107;-75
2022/06/27 06:06:43;;;;;;;7.63;3.05;;;;;;;;;;5012307;28;20470;-77
2022/06/27 06:09:10;;;;;;;4.60;2.97;;;;;;;;;;5011617;28;20018;-76
2022/06/27 06:11:37;;;;;;;10.05;3.22;;;;;;;;;;5010691;28;20022;-76
2022/06/27 06:14:03;;;;;;;6.93;3.08;;;;;;;;;;4992264;28;20528;-76
2022/06/27 06:16:30;;;;;;;4.25;2.83;;;;;;;;;;5011468;28;20127;-75
2022/06/27 06:18:56;;;;;;;7.18;2.60;;;;;;;;;;5008281;28;20049;-74
2022/06/27 06:21:23;;;;;;;4.00;2.95;;;;;;;;;;4993093;28;20053;-74
2022/06/27 06:23:51;;;;;;;7.47;3.45;;;;;;;;;;5004085;28;20217;-71
2022/06/27 06:26:19;;;;;;;3.80;2.60;;;;;;;;;;5009211;28;20083;-72
2022/06/27 06:28:46;;;;;;;10.60;3.47;;;;;;;;;;5010788;28;20127;-74
2022/06/27 06:31:21;;;;;;;3.60;2.88;;;;;;;;;;5011842;28;20103;-72
2022/06/27 06:33:48;;;;;;;10.68;3.28;;;;;;;;;;5015456;28;20179;-75
2022/06/27 06:36:15;;;;;;;6.97;2.97;;;;;;;;;;5011428;28;20021;-76
2022/06/27 06:38:41;;;;;;;7.55;3.20;;;;;;;;;;5010417;28;20037;-73
2022/06/27 06:41:07;;;;;;;10.05;3.15;;;;;;;;;;5010529;28;20113;-73
2022/06/27 06:43:33;;;;;;;6.95;2.95;;;;;;;;;;5014032;28;20032;-76
2022/06/27 06:46:00;;;;;;;7.22;2.85;;;;;;;;;;5009177;28;20042;-79
2022/06/27 06:48:26;;;;;;;8.00;2.90;;;;;;;;;;5009523;28;20022;-79
2022/06/27 06:50:54;;;;;;;4.15;2.67;;;;;;;;;;5010657;28;20033;-80
2022/06/27 06:53:20;;;;;;;8.30;3.00;;;;;;;;;;5011277;28;20021;-80
2022/06/27 06:55:50;;;;;;;4.03;2.47;;;;;;;;;;5010289;28;20029;-78
2022/06/27 06:58:17;;;;;;;6.15;2.42;;;;;;;;;;5009554;28;20026;-79
2022/06/27 07:00:44;;;;;;;3.55;2.50;;;;;;;;;;5010571;28;20049;-76
2022/06/27 07:03:10;;;;;;;4.82;2.75;;;;;;;;;;5009486;28;20022;-78
2022/06/27 07:05:37;;;;;;;3.15;2.25;;;;;;;;;;5009608;28;20175;-77
2022/06/27 07:08:07;;;;;;;3.85;2.67;;;;;;;;;;5007174;28;20458;-83
2022/06/27 07:10:33;;;;;;;3.88;2.90;;;;;;;;;;5014846;28;20022;-79
2022/06/27 07:13:00;;;;;;;5.15;2.92;;;;;;;;;;5008825;28;20061;-80
2022/06/27 07:15:26;;;;;;;5.72;3.25;;;;;;;;;;4991308;28;20400;-80
2022/06/27 07:17:53;;;;;;;5.28;2.63;;;;;;;;;;5004107;28;20395;-77
2022/06/27 07:20:20;;;;;;;4.53;2.67;;;;;;;;;;5010684;28;20112;-75
2022/06/27 07:22:47;;;;;;;3.88;2.63;;;;;;;;;;5010980;28;20022;-78
2022/06/27 07:25:14;;;;;;;4.60;2.60;;;;;;;;;;5010142;28;20026;-76
2022/06/27 07:27:42;;;;;;;6.63;2.88;;;;;;;;;;5006714;28;20030;-77
2022/06/27 07:30:09;;;;;;;4.43;2.65;;;;;;;;;;5004767;28;20030;-77
2022/06/27 07:32:36;;;;;;;4.30;2.60;;;;;;;;;;5006509;28;20036;-76
2022/06/27 07:35:03;;;;;;;3.30;2.33;;;;;;;;;;5008381;28;20053;-79
2022/06/27 07:37:29;;;;;;;3.53;2.33;;;;;;;;;;5009703;28;20018;-75
2022/06/27 07:39:56;;;;;;;3.08;2.40;;;;;;;;;;5008334;28;20121;-79
2022/06/27 07:42:22;;;;;;;4.75;2.80;;;;;;;;;;5008864;28;20029;-79
2022/06/27 07:44:50;;;;;;;2.65;2.40;;;;;;;;;;4994126;28;20131;-77
2022/06/27 07:47:18;;;;;;;3.70;2.50;;;;;;;;;;5010265;28;20026;-80
2022/06/27 07:49:44;;;;;;;2.95;2.47;;;;;;;;;;4991693;28;20572;-81
2022/06/27 07:52:12;;;;;;;8.43;2.80;;;;;;;;;;4992382;28;20034;-81
2022/06/27 07:54:38;;;;;;;2.40;2.20;;;;;;;;;;5012972;28;20037;-78
2022/06/27 07:57:18;;;;;;;4.15;2.50;;;;;;;;;;5010879;28;20022;-79
2022/06/27 07:59:44;;;;;;;6.90;2.08;;;;;;;;;;4991917;28;20042;-79
2022/06/27 08:02:10;;;;;;;3.58;1.77;;;;;;;;;;5014409;28;20021;-76
2022/06/27 08:04:37;;;;;;;3.78;2.10;;;;;;;;;;5025536;28;20036;-75
2022/06/27 08:07:06;;;;;;;5.45;2.00;;;;;;;;;;5014317;28;20077;-75
2022/06/27 08:09:32;;;;;;;5.75;2.00;;;;;;;;;;5013680;28;20030;-75
2022/06/27 08:12:00;;;;;;;11.60;2.33;;;;;;;;;;5014494;28;20379;-75
2022/06/27 08:14:26;;;;;;;7.65;1.85;;;;;;;;;;5013343;28;20033;-75
2022/06/27 08:16:57;;;;;;;4.22;2.03;;;;;;;;;;5013619;28;20041;-75
2022/06/27 08:19:23;;;;;;;4.15;1.90;;;;;;;;;;5013685;28;20022;-77
2022/06/27 08:21:49;;;;;;;2.42;1.92;;;;;;;;;;5013926;28;20029;-75
2022/06/27 08:24:19;;;;;;;3.35;2.00;;;;;;;;;;5013734;28;20108;-75
2022/06/27 08:26:49;;;;;;;3.15;1.85;;;;;;;;;;5012969;28;20026;-78
2022/06/27 08:29:15;;;;;;;3.83;2.40;;;;;;;;;;5013103;28;20038;-75
2022/06/27 08:31:44;;;;;;;2.38;2.05;;;;;;;;;;5012225;28;20507;-76
2022/06/27 08:34:12;;;;;;;3.63;2.33;;;;;;;;;;5008392;28;20026;-83
2022/06/27 08:36:39;;;;;;;3.67;1.90;;;;;;;;;;5012392;28;20076;-78
2022/06/27 08:39:11;;;;;;;2.80;2.20;;;;;;;;;;5009920;28;20041;-76
2022/06/27 08:41:37;;;;;;;3.72;2.40;;;;;;;;;;5001288;28;20060;-74
2022/06/27 08:44:06;;;;;;;2.20;1.88;;;;;;;;;;5009890;28;20507;-76
2022/06/27 08:46:33;;;;;;;4.60;2.47;;;;;;;;;;4990528;28;20049;-74
2022/06/27 08:48:59;;;;;;;3.65;1.95;;;;;;;;;;5004079;28;20029;-74
2022/06/27 08:51:26;;;;;;;9.50;2.20;;;;;;;;;;5007880;28;20107;-76
2022/06/27 08:53:55;;;;;;;5.85;3.15;;;;;;;;;;5008389;28;20025;-77
2022/06/27 08:56:24;;;;;;;2.00;1.90;;;;;;;;;;5012518;28;20032;-81
2022/06/27 08:58:51;;;;;;;2.90;2.00;;;;;;;;;;5008259;28;20502;-76
2022/06/27 09:01:19;;;;;;;2.90;2.08;;;;;;;;;;5009999;28;20030;-76
2022/06/27 09:04:01;;;;;;;4.13;1.90;;;;;;;;;;5008198;28;20028;-81
2022/06/27 09:06:30;;;;;;;2.55;1.90;;;;;;;;;;5008222;28;20598;-75
2022/06/27 09:09:06;;;;;;;3.33;2.17;;;;;;;;;;5009568;28;20058;-77
2022/06/27 09:11:35;;;;;;;5.25;2.00;;;;;;;;;;5011349;28;20099;-78
2022/06/27 09:14:02;;;;;;;3.28;2.00;;;;;;;;;;5009776;28;20026;-79
2022/06/27 09:16:28;;;;;;;3.67;2.00;;;;;;;;;;5011300;28;20399;-76
2022/06/27 09:18:55;;;;;;;3.40;2.03;;;;;;;;;;5014431;28;20040;-78
2022/06/27 09:21:22;;;;;;;1.90;1.80;;;;;;;;;;4990859;28;20518;-76
2022/06/27 09:23:51;;;;;;;3.58;2.00;;;;;;;;;;5006503;28;20017;-76
2022/06/27 09:26:21;;;;;;;3.20;1.85;;;;;;;;;;5011461;28;20129;-77
2022/06/27 09:29:01;;;;;;;6.35;2.30;;;;;;;;;;5011928;28;20026;-78
2022/06/27 09:31:28;;;;;;;16.98;2.63;;;;;;;;;;5010081;28;20030;-74
2022/06/27 09:34:00;;;;;;;2.88;1.90;;;;;;;;;;5006021;28;20160;-75
2022/06/27 09:36:27;;;;;;;3.45;2.05;;;;;;;;;;5004487;28;20019;-74
2022/06/27 09:38:54;;;;;;;2.95;2.17;;;;;;;;;;5008421;28;20022;-76
2022/06/27 09:41:21;;;;;;;5.45;2.22;;;;;;;;;;5012052;28;20045;-77
2022/06/27 09:43:49;;;;;;;3.15;1.88;;;;;;;;;;5013171;28;20079;-73
2022/06/27 09:46:17;;;;;;;5.93;2.47;;;;;;;;;;5009537;28;20042;-75
2022/06/27 09:48:44;;;;;;;3.70;2.10;;;;;;;;;;5010992;28;20068;-75
2022/06/27 09:51:12;;;;;;;6.43;2.25;;;;;;;;;;5010145;28;20444;-76
2022/06/27 09:53:39;;;;;;;5.00;2.58;;;;;;;;;;5010627;28;20491;-82
2022/06/27 09:56:09;;;;;;;7.78;2.47;;;;;;;;;;5011000;28;20018;-82
2022/06/27 09:58:37;;;;;;;2.78;1.92;;;;;;;;;;5010029;28;20084;-78
2022/06/27 10:01:04;;;;;;;2.47;1.88;;;;;;;;;;5008933;28;20033;-76
2022/06/27 10:03:31;;;;;;;9.00;2.90;;;;;;;;;;5011691;28;20026;-76
2022/06/27 10:05:58;;;;;;;3.95;1.90;;;;;;;;;;5011481;28;20104;-76
2022/06/27 10:08:25;;;;;;;3.30;2.15;;;;;;;;;;5010526;28;20030;-75
2022/06/27 10:11:08;;;;;;;5.85;2.17;;;;;;;;;;5011018;28;20010;-76
2022/06/27 10:13:35;;;;;;;3.08;2.00;;;;;;;;;;5006901;28;20387;-75
2022/06/27 10:16:09;;;;;;;4.55;2.22;;;;;;;;;;5011470;28;20124;-76
2022/06/27 10:18:51;;;;;;;10.88;4.97;;;;;;;;;;5007859;28;20064;-80
2022/06/27 10:21:27;;;;;;;2.50;2.30;;;;;;;;;;5004246;28;20099;-76
2022/06/27 10:24:12;;;;;;;3.05;2.15;;;;;;;;;;5008198;28;20271;-75
2022/06/27 10:26:42;;;;;;;8.77;2.60;;;;;;;;;;5009442;28;20053;-73
2022/06/27 10:29:26;;;;;;;7.53;2.45;;;;;;;;;;5009708;28;20113;-76
2022/06/27 10:31:53;;;;;;;4.72;2.30;;;;;;;;;;5006282;28;20484;-76
2022/06/27 10:34:27;;;;;;;4.07;2.13;;;;;;;;;;5009225;28;20053;-78
2022/06/27 10:37:19;;;;;;;3.15;2.20;;;;;;;;;;5009974;28;20034;-76
2022/06/27 10:39:45;;;;;;;4.13;1.92;;;;;;;;;;4979870;28;20107;-78
2022/06/27 10:42:34;;;;;;;4.93;2.20;;;;;;;;;;5007615;28;20025;-77
2022/06/27 10:45:19;;;;;;;2.67;1.98;;;;;;;;;;4998308;28;20124;-76
2022/06/27 10:47:46;;;;;;;3.92;2.10;;;;;;;;;;5009027;28;20058;-79
2022/06/27 10:50:14;;;;;;;2.80;2.00;;;;;;;;;;5007440;28;20429;-80
2022/06/27 10:52:40;;;;;;;4.68;2.10;;;;;;;;;;5009347;28;20023;-79
2022/06/27 10:55:26;;;;;;;3.33;2.30;;;;;;;;;;5011347;28;20030;-76
2022/06/27 10:57:53;;;;;;;2.95;2.40;;;;;;;;;;5008058;28;20543;-82
2022/06/27 11:00:34;;;;;;;11.48;2.60;;;;;;;;;;4991807;28;20100;-78
2022/06/27 11:03:01;;;;;;;3.38;2.25;;;;;;;;;;5009900;28;20048;-76
2022/06/27 11:05:28;;;;;;;4.22;2.25;;;;;;;;;;5005860;28;20479;-75
2022/06/27 11:07:55;;;;;;;6.68;2.50;;;;;;;;;;5009833;28;20034;-83
2022/06/27 11:10:21;;;;;;;5.57;2.30;;;;;;;;;;5008196;28;20494;-80
2022/06/27 11:12:47;;;;;;;5.47;2.50;;;;;;;;;;5009799;28;20058;-83
2022/06/27 11:15:13;;;;;;;7.15;2.20;;;;;;;;;;5008265;28;20149;-76
2022/06/27 11:17:44;;;;;;;4.00;2.63;;;;;;;;;;4990618;28;20068;-76
2022/06/27 11:20:11;;;;;;;4.32;2.10;;;;;;;;;;4996533;28;20134;-78
2022/06/27 11:22:37;;;;;;;5.68;2.30;;;;;;;;;;5011177;28;20066;-78
2022/06/27 11:25:04;;;;;;;4.57;2.38;;;;;;;;;;5013468;28;20403;-76
2022/06/27 11:27:45;;;;;;;9.00;2.35;;;;;;;;;;5014052;28;20018;-77
2022/06/27 11:32:56;;;;;;;3.75;2.65;;;;;;;;;;5011321;28;20135;-76
2022/06/27 11:35:22;;;;;;;3.92;2.22;;;;;;;;;;5012052;28;20026;-77
2022/06/27 11:37:49;;;;;;;5.03;2.45;;;;;;;;;;5014754;28;20129;-79
2022/06/27 11:40:15;;;;;;;6.22;2.55;;;;;;;;;;5011534;28;20487;-76
2022/06/27 11:42:42;;;;;;;3.20;2.00;;;;;;;;;;5012732;28;20097;-76
2022/06/27 11:45:10;;;;;;;3.65;2.20;;;;;;;;;;5009973;28;20120;-86
2022/06/27 11:47:39;;;;;;;5.80;2.10;;;;;;;;;;5012824;28;20030;-84
2022/06/27 11:50:06;;;;;;;6.30;2.30;;;;;;;;;;5013462;28;20025;-75
2022/06/27 11:52:40;;;;;;;2.95;2.10;;;;;;;;;;5011296;28;20021;-80
2022/06/27 11:55:10;;;;;;;5.57;2.45;;;;;;;;;;4991290;28;20029;-81
2022/06/27 11:57:36;;;;;;;4.07;2.20;;;;;;;;;;5012700;28;20034;-78
2022/06/27 12:00:06;;;;;;;8.25;2.50;;;;;;;;;;5012697;28;20116;-80
2022/06/27 12:02:36;;;;;;;3.83;2.40;;;;;;;;;;5011850;28;20052;-78
2022/06/27 12:05:11;;;;;;;9.40;2.70;;;;;;;;;;5011306;28;20054;-79
2022/06/27 12:07:55;;;;;;;3.35;2.25;;;;;;;;;;4988450;28;20196;-81
2022/06/27 12:10:39;;;;;;;3.83;2.30;;;;;;;;;;5003164;28;20040;-78
2022/06/27 12:13:07;;;;;;;5.60;2.25;;;;;;;;;;5011567;28;20068;-76
2022/06/27 12:15:34;;;;;;;3.28;2.38;;;;;;;;;;5013723;28;20050;-77
2022/06/27 12:18:01;;;;;;;5.25;2.50;;;;;;;;;;5014004;28;20046;-78
2022/06/27 12:20:30;;;;;;;6.90;2.88;;;;;;;;;;5012006;28;20392;-77
2022/06/27 12:22:56;;;;;;;4.15;2.40;;;;;;;;;;5011586;28;20018;-77
2022/06/27 12:25:22;;;;;;;4.18;2.30;;;;;;;;;;5010879;28;20040;-77
2022/06/27 12:27:49;;;;;;;3.58;2.30;;;;;;;;;;5011799;28;20026;-78
2022/06/27 12:30:15;;;;;;;7.47;3.20;;;;;;;;;;5006875;28;20030;-80
2022/06/27 12:32:42;;;;;;;8.68;4.32;;;;;;;;;;5010532;28;20772;-77
2022/06/27 12:35:09;;;;;;;3.72;2.83;;;;;;;;;;5008937;28;20037;-77
2022/06/27 12:37:36;;;;;;;4.32;2.50;;;;;;;;;;5005037;28;20423;-76
2022/06/27 12:40:02;;;;;;;6.68;3.40;;;;;;;;;;5007275;28;20046;-75
2022/06/27 12:42:28;;;;;;;4.82;2.35;;;;;;;;;;5004395;28;20022;-78
2022/06/27 12:44:55;;;;;;;4.97;2.50;;;;;;;;;;4999331;28;20109;-76
2022/06/27 12:47:21;;;;;;;3.90;2.35;;;;;;;;;;5009745;28;20030;-74
2022/06/27 12:49:47;;;;;;;5.68;2.30;;;;;;;;;;5011171;28;20488;-80
2022/06/27 12:52:13;;;;;;;8.48;2.55;;;;;;;;;;5014732;28;20033;-80
2022/06/27 12:54:39;;;;;;;4.68;2.25;;;;;;;;;;5011228;28;20034;-72
2022/06/27 12:57:06;;;;;;;3.95;2.40;;;;;;;;;;5008652;28;20050;-85
2022/06/27 12:59:33;;;;;;;4.47;2.55;;;;;;;;;;5010910;28;20057;-79
2022/06/27 13:01:59;;;;;;;11.55;2.60;;;;;;;;;;5012600;28;20104;-80
2022/06/27 13:04:25;;;;;;;5.90;2.50;;;;;;;;;;5011932;28;20029;-79
2022/06/27 13:06:52;;;;;;;4.47;2.30;;;;;;;;;;5011856;28;20403;-80
2022/06/27 13:09:18;;;;;;;4.03;2.30;;;;;;;;;;5011994;28;20060;-79
2022/06/27 13:11:44;;;;;;;4.38;2.40;;;;;;;;;;5011409;28;20026;-74
2022/06/27 13:14:10;;;;;;;4.05;2.22;;;;;;;;;;5009712;28;20553;-77
2022/06/27 13:16:36;;;;;;;5.60;2.72;;;;;;;;;;5010588;28;20054;-78
2022/06/27 13:19:03;;;;;;;3.35;2.40;;;;;;;;;;5011552;28;20037;-78
2022/06/27 13:21:29;;;;;;;8.20;2.85;;;;;;;;;;5009930;28;20038;-78
2022/06/27 13:23:55;;;;;;;10.63;2.90;;;;;;;;;;4989822;28;20488;-76
2022/06/27 13:26:21;;;;;;;5.13;2.58;;;;;;;;;;5010007;28;20028;-77
2022/06/27 13:28:47;;;;;;;5.15;2.40;;;;;;;;;;5011294;28;20032;-77
2022/06/27 13:31:13;;;;;;;6.47;2.67;;;;;;;;;;5009211;28;20528;-80
2022/06/27 13:33:39;;;;;;;6.22;2.40;;;;;;;;;;5008180;28;20037;-77
2022/06/27 13:36:05;;;;;;;3.17;2.33;;;;;;;;;;5012192;28;20050;-78
2022/06/27 13:38:32;;;;;;;7.55;2.40;;;;;;;;;;5009961;28;20026;-79
2022/06/27 13:40:58;;;;;;;4.80;2.50;;;;;;;;;;5011484;28;20487;-82
2022/06/27 13:43:24;;;;;;;9.73;2.50;;;;;;;;;;5009279;28;20431;-78
2022/06/27 13:45:50;;;;;;;3.15;2.40;;;;;;;;;;5011963;28;20084;-83
2022/06/27 13:48:16;;;;;;;6.75;2.80;;;;;;;;;;4992701;28;20026;-83
2022/06/27 13:50:43;;;;;;;4.90;2.28;;;;;;;;;;4989693;28;20558;-83
2022/06/27 13:53:09;;;;;;;6.47;2.47;;;;;;;;;;4993130;28;20198;-85
2022/06/27 13:55:37;;;;;;;4.28;2.42;;;;;;;;;;5012230;28;20036;-85
2022/06/27 13:58:04;;;;;;;7.00;2.30;;;;;;;;;;4993385;28;20034;-84
2022/06/27 14:00:30;;;;;;;5.15;2.70;;;;;;;;;;5010661;28;20036;-82
2022/06/27 14:02:56;;;;;;;6.25;2.58;;;;;;;;;;5010340;28;20029;-84
2022/06/27 14:05:22;;;;;;;4.93;2.65;;;;;;;;;;5011125;28;20074;-81
2022/06/27 14:07:48;;;;;;;3.55;2.40;;;;;;;;;;5009158;28;20065;-84
2022/06/27 14:10:19;;;;;;;7.07;2.72;;;;;;;;;;4993489;28;20587;-78
2022/06/27 14:12:48;;;;;;;5.85;2.50;;;;;;;;;;5008215;28;20125;-80
2022/06/27 14:15:14;;;;;;;4.53;2.53;;;;;;;;;;5010458;28;20038;-77
2022/06/27 14:17:41;;;;;;;4.88;2.50;;;;;;;;;;5010088;28;20033;-78
2022/06/27 14:20:08;;;;;;;3.90;2.45;;;;;;;;;;5009338;28;20034;-78
2022/06/27 14:22:34;;;;;;;6.97;2.47;;;;;;;;;;5011513;28;20030;-77
2022/06/27 14:25:01;;;;;;;5.18;2.70;;;;;;;;;;5010549;28;20105;-77
2022/06/27 14:27:27;;;;;;;3.10;2.13;;;;;;;;;;5010163;28;20061;-80
2022/06/27 14:29:53;;;;;;;5.93;2.40;;;;;;;;;;4990854;28;20030;-82
2022/06/27 14:32:19;;;;;;;5.82;2.28;;;;;;;;;;5009452;28;20014;-79
2022/06/27 14:34:45;;;;;;;3.72;2.40;;;;;;;;;;5011251;28;20030;-79
2022/06/27 14:37:11;;;;;;;3.42;2.40;;;;;;;;;;5010933;28;20025;-80
2022/06/27 14:39:37;;;;;;;4.68;2.42;;;;;;;;;;5010545;28;20041;-81
2022/06/27 14:42:04;;;;;;;9.88;2.72;;;;;;;;;;4993619;28;20495;-81
2022/06/27 14:44:32;;;;;;;5.03;2.80;;;;;;;;;;5008746;28;20097;-77
2022/06/27 14:46:58;;;;;;;6.20;2.40;;;;;;;;;;5011264;28;20029;-83
2022/06/27 14:49:24;;;;;;;4.32;2.30;;;;;;;;;;5010005;28;20068;-75